台北 の空港の天気 - METARとTAF

台湾桃園国際空港 ( RCTP / TPE ) - 中華民国(台湾) 台北市
飛行場実況気象(Metar)
観測時間09/26 20:30 CST (09/26 12:30 UTC)
風向・風速南西 4m/s
視程10km以上
天気現象
少しの雲 雲底高度 610m
気温28℃
湿度79%
気圧1010hPa
METARRCTP 261230Z 23007KT 9999 FEW020 28/24 Q1010 NOSIG RMK A2984
過去の天気等 Google飛行場航空写真 Wunderground天気予報

過去48時間のMETAR

飛行場予報(TAF)
発表時間: 9/26 19:00 CST (9/26 11:00 UTC)
予報対象時間: 26日20時 CST ~ 28日2時 CST
風向・風速南南西 3m/s
視程10km以上
少しの雲 雲底高度 760m
27日9時 CST ~ 27日11時 CST に徐々に
風向・風速西南西 4m/s
27日11時 CST ~ 27日17時 CST に一時的に
風向・風速南南西 8m/s
TAF RCTP 261100Z 2612/2718 21005KT 9999 FEW025
BECMG 2701/2703 24008KT
TEMPO 2703/2709 21015KT